createdAt,value
2018-08-16T00:01:21.712Z,22.53
2018-08-16T00:06:26.432Z,22.35
2018-08-16T00:11:31.784Z,22.45
2018-08-16T00:16:36.307Z,22.54
2018-08-16T00:21:41.022Z,22.41
2018-08-16T00:26:45.599Z,22.43
2018-08-16T00:31:50.152Z,22.38
2018-08-16T00:36:54.586Z,22.42
2018-08-16T00:41:59.064Z,22.11
2018-08-16T00:47:03.688Z,21.97
2018-08-16T00:52:08.349Z,22.11
2018-08-16T00:57:13.112Z,22.17
2018-08-16T01:02:18.591Z,21.97
2018-08-16T01:07:23.851Z,22.14
2018-08-16T01:12:28.787Z,21.92
2018-08-16T01:17:34.202Z,21.84
2018-08-16T01:22:38.954Z,21.85
2018-08-16T01:27:43.767Z,21.71
2018-08-16T01:32:48.637Z,21.95
2018-08-16T01:37:53.293Z,21.93
2018-08-16T01:42:57.898Z,21.91
2018-08-16T01:48:02.988Z,22.09
2018-08-16T01:53:07.472Z,22.19
2018-08-16T01:58:11.942Z,22.14
2018-08-16T02:03:16.160Z,22.19
2018-08-16T02:08:21.479Z,22.25
2018-08-16T02:13:25.581Z,22.13
2018-08-16T02:18:29.755Z,22.11
2018-08-16T02:23:34.385Z,22.11
2018-08-16T02:28:38.568Z,22.09
2018-08-16T02:33:42.571Z,21.96
2018-08-16T02:38:46.773Z,21.67
2018-08-16T02:43:50.841Z,21.93
2018-08-16T02:48:55.727Z,22.14
2018-08-16T02:53:59.644Z,22.16
2018-08-16T02:59:03.797Z,21.93
2018-08-16T03:04:07.721Z,21.99
2018-08-16T03:09:12.107Z,21.91
2018-08-16T03:14:16.190Z,21.76
2018-08-16T03:19:20.246Z,21.87
2018-08-16T03:24:24.149Z,21.51
2018-08-16T03:29:27.936Z,21.54
2018-08-16T03:34:31.860Z,21.44
2018-08-16T03:39:35.717Z,21.63
2018-08-16T03:44:39.671Z,21.58
2018-08-16T03:49:43.464Z,21.30
2018-08-16T03:54:47.471Z,21.15
2018-08-16T03:59:51.251Z,21.19
2018-08-16T04:04:55.229Z,21.60
2018-08-16T04:09:59.223Z,20.70
2018-08-16T04:15:08.119Z,20.00
2018-08-16T04:20:12.533Z,19.85
2018-08-16T04:25:18.176Z,19.62
2018-08-16T04:30:21.943Z,19.57
2018-08-16T04:35:25.652Z,19.30
2018-08-16T04:40:29.296Z,19.20
2018-08-16T04:45:32.945Z,19.20
2018-08-16T04:50:36.673Z,19.02
2018-08-16T04:55:42.120Z,19.05
2018-08-16T05:00:45.861Z,19.11
2018-08-16T05:05:49.591Z,18.86
2018-08-16T05:10:53.311Z,18.91
2018-08-16T05:15:57.002Z,18.94
2018-08-16T05:21:00.726Z,18.79
2018-08-16T05:26:04.413Z,18.73
2018-08-16T05:31:08.086Z,18.80
2018-08-16T05:36:11.822Z,18.89
2018-08-16T05:41:15.509Z,19.05
2018-08-16T05:46:19.165Z,19.07
2018-08-16T05:51:22.985Z,19.12
2018-08-16T05:56:26.842Z,19.23
2018-08-16T06:01:30.745Z,19.24
2018-08-16T06:06:34.481Z,19.33
2018-08-16T06:11:38.462Z,19.31
2018-08-16T06:16:42.305Z,19.53
2018-08-16T06:21:46.810Z,19.60
2018-08-16T06:26:50.823Z,19.67
2018-08-16T06:31:56.429Z,19.79
2018-08-16T06:37:00.308Z,19.88
2018-08-16T06:42:04.090Z,19.99
2018-08-16T06:47:07.922Z,20.09
2018-08-16T06:52:11.678Z,20.16
2018-08-16T06:57:15.430Z,20.28
2018-08-16T07:02:19.234Z,20.42
2018-08-16T07:07:22.959Z,20.47
2018-08-16T07:12:26.656Z,20.65
2018-08-16T07:17:30.374Z,20.78
2018-08-16T07:22:34.103Z,20.93
2018-08-16T07:27:37.896Z,21.00
2018-08-16T07:32:41.611Z,21.12
2018-08-16T07:37:45.310Z,21.22
2018-08-16T07:42:48.990Z,21.34
2018-08-16T07:47:52.750Z,21.43
2018-08-16T07:52:56.398Z,21.62
2018-08-16T07:58:00.257Z,21.77
2018-08-16T08:03:04.040Z,21.87
2018-08-16T08:08:07.881Z,21.93
2018-08-16T08:13:11.822Z,21.98
2018-08-16T08:18:15.786Z,22.14
2018-08-16T08:23:19.530Z,22.24
2018-08-16T08:28:23.406Z,22.33
2018-08-16T08:33:27.111Z,22.38
2018-08-16T08:38:30.904Z,22.50
2018-08-16T08:43:45.741Z,22.56
2018-08-16T08:48:49.470Z,22.57
2018-08-16T08:57:09.082Z,22.63
2018-08-16T09:02:13.171Z,22.76
2018-08-16T09:07:18.201Z,22.80
2018-08-16T09:12:33.179Z,22.92
2018-08-16T09:17:37.526Z,23.00
2018-08-16T09:22:42.554Z,23.11
2018-08-16T09:27:46.352Z,23.13
2018-08-16T09:33:01.274Z,23.22
2018-08-16T09:38:05.702Z,23.29
2018-08-16T09:43:09.378Z,23.40
2018-08-16T09:48:24.438Z,23.35
2018-08-16T09:53:28.090Z,23.30
2018-08-16T09:58:31.766Z,23.31
2018-08-16T10:03:35.498Z,23.31
2018-08-16T10:08:39.261Z,23.33
2018-08-16T10:13:42.914Z,23.36
2018-08-16T10:18:46.607Z,23.37
2018-08-16T10:23:50.300Z,23.38
2018-08-16T10:28:53.975Z,23.41
2018-08-16T10:33:57.954Z,23.44
2018-08-16T10:39:01.605Z,23.45
2018-08-16T10:44:05.470Z,23.47
2018-08-16T10:49:09.188Z,23.47
2018-08-16T10:54:12.881Z,23.52
2018-08-16T10:59:16.633Z,23.53
2018-08-16T11:04:20.440Z,23.54
2018-08-16T11:09:24.656Z,23.55
2018-08-16T11:14:28.469Z,23.57
2018-08-16T11:19:32.223Z,23.61
2018-08-16T11:24:35.926Z,23.64
2018-08-16T11:29:50.555Z,23.68
2018-08-16T11:34:55.559Z,23.71
2018-08-16T11:39:59.286Z,23.72
2018-08-16T11:45:04.868Z,23.74
2018-08-16T11:50:09.103Z,23.77
2018-08-16T11:55:15.527Z,23.78
2018-08-16T12:00:25.549Z,23.80
2018-08-16T12:05:33.650Z,23.80
2018-08-16T12:10:37.433Z,23.81
2018-08-16T12:15:41.754Z,23.82
2018-08-16T12:20:45.489Z,23.83
2018-08-16T12:25:51.211Z,23.85
2018-08-16T12:30:54.874Z,23.84
2018-08-16T12:35:58.539Z,23.85
2018-08-16T12:41:02.711Z,23.87
2018-08-16T12:46:06.401Z,23.89
2018-08-16T12:51:10.133Z,23.90
2018-08-16T12:56:13.852Z,23.93
2018-08-16T13:01:17.543Z,23.93
2018-08-16T13:06:22.161Z,23.96
2018-08-16T13:11:26.024Z,23.98
2018-08-16T13:16:29.652Z,23.98
2018-08-16T13:21:33.333Z,24.07
2018-08-16T13:26:36.979Z,24.11
2018-08-16T13:31:40.612Z,24.18
2018-08-16T13:36:44.747Z,24.21
2018-08-16T13:41:48.368Z,24.26
2018-08-16T13:46:52.398Z,24.20
2018-08-16T13:51:56.158Z,24.25
2018-08-16T13:56:59.951Z,24.25
2018-08-16T14:02:04.065Z,24.22
2018-08-16T14:07:07.756Z,24.21
2018-08-16T14:12:11.663Z,24.26
2018-08-16T14:17:15.539Z,24.26
2018-08-16T14:22:19.771Z,24.32
2018-08-16T14:27:23.493Z,24.33
2018-08-16T14:32:27.223Z,24.35
2018-08-16T14:37:30.899Z,24.36
2018-08-16T14:42:34.598Z,24.37
2018-08-16T14:47:39.121Z,24.39
2018-08-16T14:52:43.244Z,24.39
2018-08-16T14:57:46.981Z,24.43
2018-08-16T15:02:50.647Z,24.46
2018-08-16T15:07:54.298Z,24.45
2018-08-16T15:12:57.952Z,24.47
2018-08-16T15:18:01.603Z,24.47
2018-08-16T15:23:05.230Z,24.59
2018-08-16T15:28:08.925Z,24.67
2018-08-16T15:33:12.622Z,24.83
2018-08-16T15:38:16.199Z,25.00
2018-08-16T15:43:19.902Z,25.06
2018-08-16T15:48:23.512Z,25.16
2018-08-16T15:53:27.131Z,25.04
2018-08-16T15:58:30.811Z,25.14
2018-08-16T16:03:34.450Z,25.17
2018-08-16T16:08:38.195Z,25.17
2018-08-16T16:13:42.008Z,25.12
2018-08-16T16:18:45.893Z,25.18
2018-08-16T16:23:49.669Z,25.17
2018-08-16T16:28:53.559Z,25.12
2018-08-16T16:33:57.231Z,25.10
2018-08-16T16:39:01.106Z,25.08
2018-08-16T16:44:04.897Z,25.04
2018-08-16T16:49:08.603Z,25.03
2018-08-16T16:54:12.246Z,25.00
2018-08-16T16:59:16.106Z,25.00
2018-08-16T17:04:19.954Z,25.00
2018-08-16T17:09:23.782Z,25.05
2018-08-16T17:14:28.786Z,25.09
2018-08-16T17:19:32.814Z,25.15
2018-08-16T17:24:36.840Z,25.22
2018-08-16T17:29:41.115Z,25.26
2018-08-16T17:34:44.977Z,25.24
2018-08-16T17:39:48.869Z,25.25
2018-08-16T17:44:52.736Z,25.17
2018-08-16T17:49:56.439Z,25.10
2018-08-16T17:55:00.759Z,25.06
2018-08-16T18:00:09.843Z,25.05
2018-08-16T18:05:14.244Z,25.04
2018-08-16T18:10:18.195Z,24.99
2018-08-16T18:15:22.179Z,24.95
2018-08-16T18:20:25.967Z,24.92
2018-08-16T18:25:29.670Z,24.90
2018-08-16T18:30:33.439Z,24.88
2018-08-16T18:35:37.144Z,24.86
2018-08-16T18:40:40.920Z,24.84
2018-08-16T18:45:44.794Z,24.81
2018-08-16T18:51:21.348Z,24.75
2018-08-16T18:56:25.212Z,24.79
2018-08-16T19:01:29.050Z,24.76
2018-08-16T19:11:44.565Z,24.74
2018-08-16T19:16:48.519Z,24.69
2018-08-16T19:21:52.419Z,24.67
2018-08-16T19:26:56.550Z,24.80
2018-08-16T19:32:00.425Z,24.89
2018-08-16T19:37:04.315Z,24.94
2018-08-16T19:42:08.817Z,24.99
2018-08-16T19:47:12.822Z,25.04
2018-08-16T19:52:16.521Z,25.10
2018-08-16T19:57:20.234Z,25.04
2018-08-16T20:02:23.925Z,25.11
2018-08-16T20:07:28.434Z,25.19
2018-08-16T20:12:35.445Z,25.22
2018-08-16T20:17:39.673Z,25.19
2018-08-16T20:22:43.575Z,25.33
2018-08-16T20:27:47.522Z,25.37
2018-08-16T20:32:51.474Z,25.41
2018-08-16T20:37:55.304Z,25.45
2018-08-16T20:42:59.090Z,25.48
2018-08-16T20:48:04.013Z,25.50
2018-08-16T20:53:07.956Z,25.53
2018-08-16T20:58:11.679Z,25.57
2018-08-16T21:03:15.594Z,25.58
2018-08-16T21:08:20.132Z,25.65
2018-08-16T21:13:24.549Z,25.67
2018-08-16T21:18:28.608Z,25.73
2018-08-16T21:23:32.383Z,25.79
2018-08-16T21:28:36.155Z,25.81
2018-08-16T21:33:39.967Z,25.84
2018-08-16T21:38:43.804Z,25.85
2018-08-16T21:43:47.499Z,25.91
2018-08-16T21:48:51.346Z,25.93
2018-08-16T21:53:55.229Z,25.94
2018-08-16T21:59:00.053Z,25.96
2018-08-16T22:04:03.860Z,25.99
2018-08-16T22:09:08.560Z,26.03
2018-08-16T22:14:13.641Z,26.03
2018-08-16T22:19:17.576Z,26.05
2018-08-16T22:24:21.432Z,26.09
2018-08-16T22:29:25.248Z,26.10
2018-08-16T22:34:28.976Z,26.11
2018-08-16T22:39:32.921Z,26.16
2018-08-16T22:44:36.920Z,26.15
2018-08-16T22:49:40.735Z,26.19
2018-08-16T22:54:44.862Z,26.21
2018-08-16T22:59:48.763Z,26.23
2018-08-16T23:04:52.618Z,26.23
2018-08-16T23:09:56.468Z,26.24
2018-08-16T23:15:05.622Z,26.26
2018-08-16T23:20:10.023Z,26.27
2018-08-16T23:25:13.833Z,26.26
2018-08-16T23:30:17.758Z,26.27
2018-08-16T23:36:25.493Z,26.30
2018-08-16T23:41:29.280Z,26.28
2018-08-16T23:46:33.062Z,26.30
2018-08-16T23:51:36.835Z,26.30
2018-08-16T23:56:40.607Z,26.29
